Time;durP1;ratioP1;P1;durP2;ratioP2;P2;SDS_P1;SDS_P2;PMS_P1;PMS_P2;Temp;Humidity;BMP_temperature;BMP_pressure;BME280_temperature;BME280_humidity;BME280_pressure;Samples;Min_cycle;Max_cycle;Signal;HPM_P1;HPM_P2
2023/09/18 00:01:39;;;;;;;0.93;0.93;;;22.70;76.70;;;;;;4948343;28;20490;-77
2023/09/18 00:04:05;;;;;;;0.90;0.90;;;22.70;76.80;;;;;;4948505;28;20485;-77
2023/09/18 00:06:32;;;;;;;1.35;1.33;;;22.70;76.70;;;;;;4948146;28;20500;-77
2023/09/18 00:08:57;;;;;;;1.05;1.05;;;22.70;76.60;;;;;;4949414;28;20547;-78
2023/09/18 00:11:23;;;;;;;1.30;1.20;;;22.70;76.60;;;;;;4948978;28;20549;-77
2023/09/18 00:13:48;;;;;;;0.80;0.80;;;22.70;76.70;;;;;;4948009;28;20409;-77
2023/09/18 00:16:14;;;;;;;1.55;1.00;;;22.70;76.50;;;;;;4949122;28;20095;-77
2023/09/18 00:18:40;;;;;;;0.95;0.95;;;22.70;76.50;;;;;;4948927;28;20646;-77
2023/09/18 00:21:06;;;;;;;0.90;0.90;;;22.70;76.50;;;;;;4945635;28;20035;-78
2023/09/18 00:23:35;;;;;;;0.88;0.88;;;22.70;76.50;;;;;;4947574;28;20050;-77
2023/09/18 00:26:00;;;;;;;0.80;0.80;;;22.70;76.50;;;;;;4954888;28;20442;-77
2023/09/18 00:28:26;;;;;;;1.33;1.00;;;22.70;76.50;;;;;;4944226;28;20067;-77
2023/09/18 00:30:52;;;;;;;0.90;0.90;;;22.70;76.50;;;;;;4947159;28;20027;-77
2023/09/18 00:33:19;;;;;;;0.93;0.90;;;22.70;76.50;;;;;;4948117;28;22056;-77
2023/09/18 00:35:51;;;;;;;1.20;1.00;;;22.70;76.50;;;;;;4948388;28;20046;-77
2023/09/18 00:38:17;;;;;;;0.80;0.80;;;22.70;76.50;;;;;;4946054;28;20070;-77
2023/09/18 00:40:42;;;;;;;1.10;1.10;;;22.70;76.50;;;;;;4947037;28;20130;-77
2023/09/18 00:43:08;;;;;;;1.10;1.10;;;22.70;76.50;;;;;;4947816;28;20110;-78
2023/09/18 00:45:34;;;;;;;1.50;0.98;;;22.70;76.50;;;;;;4946994;28;20046;-77
2023/09/18 00:48:00;;;;;;;1.20;1.10;;;22.70;76.50;;;;;;4948287;28;20051;-77
2023/09/18 00:50:26;;;;;;;1.20;0.98;;;22.70;76.50;;;;;;4949818;28;20039;-77
2023/09/18 00:52:51;;;;;;;1.00;0.90;;;22.70;76.40;;;;;;4949001;28;20509;-77
2023/09/18 00:55:18;;;;;;;1.00;0.90;;;22.70;76.30;;;;;;4947408;28;20118;-77
2023/09/18 00:57:44;;;;;;;1.00;1.00;;;22.70;76.40;;;;;;4947295;28;20071;-77
2023/09/18 01:00:10;;;;;;;1.38;1.27;;;22.70;76.40;;;;;;4943613;28;20125;-76
2023/09/18 01:02:35;;;;;;;1.08;1.08;;;22.70;76.30;;;;;;4944161;28;20058;-77
2023/09/18 01:05:01;;;;;;;0.88;0.88;;;22.60;76.20;;;;;;4947807;28;20039;-78
2023/09/18 01:07:28;;;;;;;0.95;0.95;;;22.70;76.20;;;;;;4947386;28;20051;-78
2023/09/18 01:09:54;;;;;;;1.15;1.15;;;22.70;76.20;;;;;;4947037;28;20046;-78
2023/09/18 01:12:27;;;;;;;0.90;0.90;;;22.60;76.20;;;;;;4946377;28;20040;-78
2023/09/18 01:15:10;;;;;;;1.20;1.10;;;22.60;76.20;;;;;;4946519;28;20047;-78
2023/09/18 01:17:38;;;;;;;0.95;0.95;;;22.60;76.20;;;;;;4944352;28;20047;-78
2023/09/18 01:20:05;;;;;;;1.13;1.05;;;22.60;76.10;;;;;;4948220;28;20046;-78
2023/09/18 01:22:31;;;;;;;0.95;0.90;;;22.70;76.20;;;;;;4945429;28;20039;-78
2023/09/18 01:24:57;;;;;;;1.95;1.27;;;22.60;76.10;;;;;;4943392;28;20519;-78
2023/09/18 01:27:22;;;;;;;1.17;1.10;;;22.70;76.20;;;;;;4943651;28;20047;-79
2023/09/18 01:29:49;;;;;;;1.30;1.20;;;22.60;76.00;;;;;;4947325;28;20036;-78
2023/09/18 01:32:14;;;;;;;2.03;1.10;;;22.60;76.00;;;;;;4947240;28;20039;-78
2023/09/18 01:34:48;;;;;;;1.33;1.25;;;22.60;76.00;;;;;;4948272;28;20498;-78
2023/09/18 01:37:15;;;;;;;1.05;1.05;;;22.60;76.10;;;;;;4945472;28;20066;-78
2023/09/18 01:39:40;;;;;;;0.93;0.93;;;22.60;76.00;;;;;;4945747;28;20117;-78
2023/09/18 01:42:06;;;;;;;0.80;0.80;;;22.60;76.00;;;;;;4947731;28;20528;-78
2023/09/18 01:44:32;;;;;;;1.27;1.10;;;22.60;76.10;;;;;;4946680;28;20516;-78
2023/09/18 01:46:59;;;;;;;0.90;0.90;;;22.60;76.00;;;;;;4947892;28;20138;-78
2023/09/18 01:49:32;;;;;;;1.13;1.02;;;22.60;76.00;;;;;;4947905;28;20493;-77
2023/09/18 01:51:58;;;;;;;1.02;1.02;;;22.60;76.10;;;;;;4949202;28;20046;-78
2023/09/18 01:54:24;;;;;;;0.90;0.90;;;22.60;76.00;;;;;;4951363;28;20097;-78
2023/09/18 01:56:50;;;;;;;1.00;0.90;;;22.60;76.00;;;;;;4950022;28;20062;-78
2023/09/18 01:59:17;;;;;;;0.85;0.85;;;22.60;76.10;;;;;;4951837;28;20066;-78
2023/09/18 02:01:42;;;;;;;0.70;0.70;;;22.60;76.00;;;;;;4950583;28;20043;-78
2023/09/18 02:04:08;;;;;;;0.88;0.88;;;22.60;76.00;;;;;;4951543;28;20406;-78
2023/09/18 02:06:34;;;;;;;0.80;0.80;;;22.60;75.90;;;;;;4949333;28;20047;-78
2023/09/18 02:09:00;;;;;;;1.00;1.00;;;22.60;75.90;;;;;;4950981;28;20042;-78
2023/09/18 02:11:26;;;;;;;0.70;0.70;;;22.60;75.90;;;;;;4951353;28;20038;-78
2023/09/18 02:13:52;;;;;;;0.65;0.65;;;22.60;76.00;;;;;;4950746;28;20065;-79
2023/09/18 02:16:19;;;;;;;0.77;0.77;;;22.60;75.90;;;;;;4950466;28;20035;-78
2023/09/18 02:18:44;;;;;;;1.10;1.10;;;22.60;75.90;;;;;;4950291;28;20058;-78
2023/09/18 02:21:10;;;;;;;0.88;0.80;;;22.60;75.90;;;;;;4950998;28;20124;-78
2023/09/18 02:23:35;;;;;;;1.08;0.90;;;22.60;75.80;;;;;;4948309;28;20497;-78
2023/09/18 02:26:01;;;;;;;1.25;1.20;;;22.60;75.90;;;;;;4950089;28;20433;-78
2023/09/18 02:28:26;;;;;;;1.00;1.00;;;22.60;75.80;;;;;;4945379;28;20213;-78
2023/09/18 02:30:52;;;;;;;1.10;1.00;;;22.60;75.80;;;;;;4950605;28;20441;-78
2023/09/18 02:33:17;;;;;;;0.93;0.93;;;22.60;75.90;;;;;;4950794;28;20535;-78
2023/09/18 02:35:43;;;;;;;1.00;1.00;;;22.60;75.80;;;;;;4950986;28;20047;-78
2023/09/18 02:38:09;;;;;;;0.90;0.90;;;22.60;75.80;;;;;;4951536;28;20512;-79
2023/09/18 02:40:34;;;;;;;1.52;0.95;;;22.60;76.60;;;;;;4949909;28;20110;-78
2023/09/18 02:43:02;;;;;;;0.93;0.93;;;22.60;75.90;;;;;;4949495;28;20529;-78
2023/09/18 02:45:27;;;;;;;1.70;1.00;;;22.60;75.80;;;;;;4950417;28;20079;-78
2023/09/18 02:47:53;;;;;;;0.88;0.88;;;22.60;75.80;;;;;;4950720;28;20051;-78
2023/09/18 02:50:19;;;;;;;1.00;1.00;;;22.60;75.80;;;;;;4950494;28;20540;-78
2023/09/18 02:52:44;;;;;;;0.70;0.70;;;22.60;75.90;;;;;;4950691;28;20049;-77
2023/09/18 02:55:10;;;;;;;0.77;0.77;;;22.60;75.80;;;;;;4949955;28;20066;-78
2023/09/18 02:57:35;;;;;;;1.13;1.10;;;22.60;75.80;;;;;;4948798;28;20482;-78
2023/09/18 03:00:01;;;;;;;0.90;0.90;;;22.60;75.80;;;;;;4949918;28;20471;-77
2023/09/18 03:02:27;;;;;;;1.67;1.10;;;22.60;75.80;;;;;;4950106;28;20046;-78
2023/09/18 03:04:53;;;;;;;1.20;1.20;;;22.60;75.80;;;;;;4947372;28;20484;-78
2023/09/18 03:07:18;;;;;;;1.10;1.00;;;22.60;75.80;;;;;;4948985;28;20106;-78
2023/09/18 03:09:44;;;;;;;0.75;0.75;;;22.60;75.80;;;;;;4949460;28;20057;-78
2023/09/18 03:12:10;;;;;;;0.90;0.90;;;22.60;75.80;;;;;;4950582;28;20031;-77
2023/09/18 03:14:36;;;;;;;1.02;0.80;;;22.60;75.90;;;;;;4948674;28;20501;-78
2023/09/18 03:17:01;;;;;;;0.73;0.73;;;22.60;75.90;;;;;;4950748;28;20051;-78
2023/09/18 03:19:27;;;;;;;1.00;1.00;;;22.60;75.90;;;;;;4948646;28;20509;-78
2023/09/18 03:21:52;;;;;;;1.95;1.00;;;22.60;75.90;;;;;;4949079;28;20138;-78
2023/09/18 03:24:18;;;;;;;0.80;0.80;;;22.60;75.90;;;;;;4947994;28;20090;-78
2023/09/18 03:26:44;;;;;;;0.90;0.90;;;22.60;76.00;;;;;;4946408;28;20470;-78
2023/09/18 03:29:10;;;;;;;0.77;0.77;;;22.60;76.00;;;;;;4949270;28;20047;-78
2023/09/18 03:31:35;;;;;;;0.70;0.70;;;22.60;76.00;;;;;;4947773;28;20086;-78
2023/09/18 03:34:01;;;;;;;1.10;1.05;;;22.60;75.90;;;;;;4949491;28;20047;-78
2023/09/18 03:36:27;;;;;;;0.70;0.70;;;22.60;75.90;;;;;;4949165;28;20404;-78
2023/09/18 03:38:52;;;;;;;0.82;0.70;;;22.60;75.90;;;;;;4948547;28;20098;-78
2023/09/18 03:41:18;;;;;;;1.02;1.00;;;22.60;75.90;;;;;;4950484;28;20537;-78
2023/09/18 03:43:43;;;;;;;0.85;0.85;;;22.60;75.90;;;;;;4948019;28;20043;-78
2023/09/18 03:46:09;;;;;;;0.60;0.60;;;22.60;75.90;;;;;;4949760;28;20182;-78
2023/09/18 03:48:38;;;;;;;0.88;0.88;;;22.60;75.90;;;;;;4946662;28;20509;-78
2023/09/18 03:51:05;;;;;;;0.90;0.90;;;22.60;75.90;;;;;;4947850;28;20052;-78
2023/09/18 03:53:31;;;;;;;1.25;1.00;;;22.60;76.70;;;;;;4948447;28;20054;-78
2023/09/18 03:55:57;;;;;;;0.75;0.75;;;22.60;75.90;;;;;;4949090;28;20109;-78
2023/09/18 03:58:23;;;;;;;0.80;0.80;;;22.60;75.90;;;;;;4946438;28;20517;-78
2023/09/18 04:00:49;;;;;;;0.90;0.90;;;22.60;75.90;;;;;;4947432;28;20050;-78
2023/09/18 04:03:14;;;;;;;0.82;0.82;;;22.60;75.90;;;;;;4946809;28;20039;-78
2023/09/18 04:05:40;;;;;;;1.17;1.17;;;22.60;75.90;;;;;;4948503;28;20055;-78
2023/09/18 04:08:06;;;;;;;0.82;0.82;;;22.60;75.90;;;;;;4949233;28;20501;-78
2023/09/18 04:10:32;;;;;;;1.13;1.02;;;22.60;75.90;;;;;;4946821;28;20047;-77
2023/09/18 04:12:58;;;;;;;1.00;0.98;;;22.60;75.90;;;;;;4949317;28;20043;-78
2023/09/18 04:15:24;;;;;;;1.95;1.00;;;22.60;75.90;;;;;;4947646;28;20047;-78
2023/09/18 04:17:50;;;;;;;1.05;1.05;;;22.60;75.90;;;;;;4948327;28;20051;-78
2023/09/18 04:20:15;;;;;;;0.70;0.70;;;22.60;75.90;;;;;;4949918;28;20039;-78
2023/09/18 04:22:43;;;;;;;0.90;0.90;;;22.60;75.90;;;;;;4947092;28;20046;-78
2023/09/18 04:25:09;;;;;;;0.93;0.93;;;22.50;75.90;;;;;;4947920;28;20062;-78
2023/09/18 04:27:34;;;;;;;0.90;0.90;;;22.60;75.90;;;;;;4947707;28;20035;-78
2023/09/18 04:30:00;;;;;;;0.90;0.90;;;22.50;75.80;;;;;;4951628;28;20522;-78
2023/09/18 04:32:27;;;;;;;1.17;1.17;;;22.60;75.90;;;;;;4947799;28;20126;-78
2023/09/18 04:34:53;;;;;;;1.10;1.10;;;22.50;75.90;;;;;;4948312;28;20493;-78
2023/09/18 04:37:18;;;;;;;1.10;1.10;;;22.60;75.90;;;;;;4948273;28;20062;-78
2023/09/18 04:39:44;;;;;;;0.65;0.65;;;22.50;75.80;;;;;;4946904;28;20138;-78
2023/09/18 04:42:10;;;;;;;0.90;0.90;;;22.50;75.80;;;;;;4949222;28;20405;-78
2023/09/18 04:44:35;;;;;;;1.23;1.15;;;22.60;75.80;;;;;;4947322;28;20191;-78
2023/09/18 04:47:01;;;;;;;0.90;0.90;;;22.50;75.80;;;;;;4948665;28;20039;-78
2023/09/18 04:49:28;;;;;;;1.10;1.00;;;22.50;75.80;;;;;;4948225;28;20509;-78
2023/09/18 04:51:54;;;;;;;1.08;1.08;;;22.60;75.80;;;;;;4948190;28;20031;-78
2023/09/18 04:54:19;;;;;;;0.93;0.93;;;22.50;75.80;;;;;;4946947;28;20043;-78
2023/09/18 04:56:45;;;;;;;0.90;0.90;;;22.50;75.80;;;;;;4944930;28;20043;-78
2023/09/18 04:59:11;;;;;;;0.85;0.85;;;22.50;75.80;;;;;;4949042;28;20047;-78
2023/09/18 05:01:36;;;;;;;1.17;1.10;;;22.50;75.80;;;;;;4947139;28;20043;-78
2023/09/18 05:04:02;;;;;;;1.02;1.00;;;22.50;75.80;;;;;;4947790;28;20240;-78
2023/09/18 05:06:28;;;;;;;1.10;1.10;;;22.60;75.90;;;;;;4946884;28;20047;-77
2023/09/18 05:08:54;;;;;;;1.00;1.00;;;22.50;75.70;;;;;;4947043;28;20050;-78
2023/09/18 05:11:20;;;;;;;1.10;1.10;;;22.50;75.80;;;;;;4947879;28;20051;-78
2023/09/18 05:13:46;;;;;;;1.17;1.08;;;22.50;75.80;;;;;;4947308;28;20054;-77
2023/09/18 05:16:11;;;;;;;0.90;0.90;;;22.50;75.80;;;;;;4946763;28;20047;-79
2023/09/18 05:18:37;;;;;;;0.80;0.80;;;22.50;75.80;;;;;;4945583;28;20129;-79
2023/09/18 05:21:04;;;;;;;0.90;0.90;;;22.50;76.10;;;;;;4946479;28;20512;-78
2023/09/18 05:23:30;;;;;;;0.98;0.98;;;22.50;76.20;;;;;;4947863;28;20067;-77
2023/09/18 05:25:55;;;;;;;1.05;1.05;;;22.50;76.20;;;;;;4951836;28;20138;-77
2023/09/18 05:28:21;;;;;;;0.90;0.90;;;22.50;76.20;;;;;;4951400;28;20054;-78
2023/09/18 05:30:47;;;;;;;0.80;0.80;;;22.50;76.20;;;;;;4949880;28;20075;-78
2023/09/18 05:33:13;;;;;;;0.80;0.80;;;22.50;76.00;;;;;;4949667;28;20876;-78
2023/09/18 05:35:42;;;;;;;0.90;0.90;;;22.50;76.00;;;;;;4950912;28;20090;-77
2023/09/18 05:38:13;;;;;;;0.90;0.90;;;22.50;76.00;;;;;;4949832;28;20039;-76
2023/09/18 05:40:39;;;;;;;1.00;1.00;;;22.50;76.00;;;;;;4949974;28;20050;-78
2023/09/18 05:43:04;;;;;;;1.23;1.20;;;22.60;76.20;;;;;;4950229;28;20039;-79
2023/09/18 05:45:31;;;;;;;1.50;0.90;;;22.60;76.20;;;;;;4949546;28;20051;-79
2023/09/18 05:48:07;;;;;;;1.27;1.20;;;22.50;76.40;;;;;;4951388;28;20050;-80
2023/09/18 05:50:35;;;;;;;2.08;1.90;;;22.40;76.90;;;;;;4948680;28;20168;-81
2023/09/18 05:53:03;;;;;;;1.67;1.58;;;22.40;76.90;;;;;;4951706;28;20051;-79
2023/09/18 05:55:29;;;;;;;1.98;1.88;;;22.40;77.10;;;;;;4949245;28;20094;-78
2023/09/18 05:57:55;;;;;;;2.00;1.90;;;22.40;77.00;;;;;;4950876;28;20054;-79
2023/09/18 06:00:21;;;;;;;2.00;1.90;;;22.40;77.20;;;;;;4951713;28;20035;-78
2023/09/18 06:02:47;;;;;;;2.15;2.05;;;22.40;77.20;;;;;;4950571;28;20540;-78
2023/09/18 06:05:15;;;;;;;1.92;1.83;;;22.40;77.40;;;;;;4950247;28;20517;-78
2023/09/18 06:07:41;;;;;;;1.98;1.83;;;22.40;77.90;;;;;;4951333;28;20237;-78
2023/09/18 06:10:07;;;;;;;2.30;1.80;;;22.30;78.00;;;;;;4628957;28;10001267;-77
2023/09/18 06:12:33;;;;;;;2.22;2.13;;;22.20;79.00;;;;;;4945805;28;20264;-78
2023/09/18 06:14:59;;;;;;;3.10;2.50;;;22.10;79.00;;;;;;4937702;28;20525;-78
2023/09/18 06:17:24;;;;;;;2.70;2.50;;;22.20;79.90;;;;;;4941515;28;20106;-80
2023/09/18 06:19:50;;;;;;;2.70;2.50;;;22.10;80.30;;;;;;4942311;28;20047;-79
2023/09/18 06:22:16;;;;;;;3.17;2.88;;;22.00;80.50;;;;;;4945474;28;20129;-78
2023/09/18 06:24:42;;;;;;;2.38;2.28;;;21.90;81.40;;;;;;4943770;28;20039;-77
2023/09/18 06:27:07;;;;;;;2.60;2.50;;;21.90;81.30;;;;;;4944317;28;20062;-77
2023/09/18 06:29:34;;;;;;;2.60;2.40;;;21.90;81.90;;;;;;4946497;28;20462;-77
2023/09/18 06:31:59;;;;;;;2.13;2.03;;;21.90;81.80;;;;;;4942554;28;20062;-77
2023/09/18 06:34:25;;;;;;;2.85;2.75;;;21.80;82.30;;;;;;4946525;28;20540;-77
2023/09/18 06:36:51;;;;;;;3.58;2.83;;;21.80;82.30;;;;;;4941030;28;20043;-78
2023/09/18 06:39:17;;;;;;;3.00;2.80;;;21.60;83.50;;;;;;4945052;28;20050;-76
2023/09/18 06:41:42;;;;;;;2.53;2.33;;;21.60;83.70;;;;;;4946638;28;20053;-77
2023/09/18 06:44:08;;;;;;;2.22;2.10;;;21.50;83.70;;;;;;4948563;28;20556;-77
2023/09/18 06:46:33;;;;;;;2.72;2.63;;;21.60;84.40;;;;;;4946691;28;20041;-77
2023/09/18 06:48:59;;;;;;;2.70;2.10;;;21.50;83.60;;;;;;4948533;28;20035;-77
2023/09/18 06:51:26;;;;;;;2.50;2.30;;;21.50;83.50;;;;;;4945639;28;20054;-77
2023/09/18 06:53:51;;;;;;;2.97;2.78;;;21.60;83.90;;;;;;4950530;28;20059;-77
2023/09/18 06:56:17;;;;;;;2.47;2.28;;;21.60;83.70;;;;;;4947649;28;20039;-76
2023/09/18 06:58:42;;;;;;;2.40;2.20;;;21.60;83.70;;;;;;4947852;28;20051;-77
2023/09/18 07:01:09;;;;;;;2.30;2.10;;;21.60;84.20;;;;;;4945243;28;20054;-77
2023/09/18 07:03:36;;;;;;;2.25;2.15;;;21.50;83.90;;;;;;4947378;28;20050;-77
2023/09/18 07:06:02;;;;;;;2.78;2.42;;;21.60;84.90;;;;;;4947892;28;20512;-77
2023/09/18 07:08:27;;;;;;;2.38;1.95;;;21.60;84.10;;;;;;4948296;28;20047;-76
2023/09/18 07:10:53;;;;;;;2.03;1.92;;;21.50;84.00;;;;;;4948686;28;20407;-77
2023/09/18 07:13:18;;;;;;;2.33;2.13;;;21.50;83.70;;;;;;4947621;28;20575;-77
2023/09/18 07:15:44;;;;;;;3.08;2.00;;;21.50;84.50;;;;;;4949923;28;20063;-78
2023/09/18 07:18:13;;;;;;;2.78;2.00;;;21.60;84.30;;;;;;4950555;28;20043;-78
2023/09/18 07:20:40;;;;;;;2.13;1.95;;;21.60;83.70;;;;;;4954145;28;20417;-78
2023/09/18 07:23:05;;;;;;;2.50;1.80;;;21.60;84.00;;;;;;4963672;28;20039;-78
2023/09/18 07:25:31;;;;;;;1.83;1.65;;;21.60;84.20;;;;;;4950001;28;20091;-78
2023/09/18 07:27:56;;;;;;;1.50;1.40;;;21.60;83.80;;;;;;4947857;28;20085;-77
2023/09/18 07:30:26;;;;;;;2.58;1.80;;;21.50;84.60;;;;;;4949535;28;20126;-78
2023/09/18 07:32:56;;;;;;;3.42;1.65;;;21.50;84.60;;;;;;4949443;28;20122;-77
2023/09/18 07:35:22;;;;;;;1.60;1.50;;;21.50;84.50;;;;;;4948308;28;20051;-78
2023/09/18 07:37:48;;;;;;;1.77;1.67;;;21.50;84.70;;;;;;4948348;28;20043;-77
2023/09/18 07:40:13;;;;;;;1.80;1.70;;;21.40;85.10;;;;;;4948760;28;20596;-78
2023/09/18 07:42:39;;;;;;;1.65;1.55;;;21.40;84.70;;;;;;4948665;28;20043;-77
2023/09/18 07:45:05;;;;;;;1.70;1.60;;;21.40;84.30;;;;;;4948637;28;20051;-77
2023/09/18 07:47:31;;;;;;;2.00;1.45;;;21.40;84.60;;;;;;4949713;28;20045;-78
2023/09/18 07:49:57;;;;;;;2.55;1.88;;;21.40;84.50;;;;;;4949569;28;20043;-78
2023/09/18 07:52:22;;;;;;;2.10;1.90;;;21.40;84.50;;;;;;4949836;28;20077;-78
2023/09/18 07:54:48;;;;;;;1.52;1.42;;;21.40;84.60;;;;;;4949047;28;20071;-78
2023/09/18 07:57:13;;;;;;;2.28;1.50;;;21.30;85.10;;;;;;4949213;28;20043;-78
2023/09/18 07:59:41;;;;;;;1.75;1.52;;;21.50;84.80;;;;;;4949163;28;20047;-78
2023/09/18 08:02:06;;;;;;;2.58;1.70;;;21.50;84.30;;;;;;4950452;28;20409;-78
2023/09/18 08:04:32;;;;;;;2.97;1.88;;;21.50;84.70;;;;;;4949014;28;20569;-77
2023/09/18 08:06:57;;;;;;;2.13;1.55;;;21.50;84.20;;;;;;4947991;28;20134;-77
2023/09/18 08:09:23;;;;;;;1.20;1.10;;;21.50;84.10;;;;;;4949504;28;20071;-77
2023/09/18 08:11:49;;;;;;;2.72;1.70;;;21.50;84.40;;;;;;4946961;28;20067;-77
2023/09/18 08:14:16;;;;;;;2.53;1.48;;;21.50;84.00;;;;;;4950024;28;20529;-77
2023/09/18 08:16:41;;;;;;;1.00;1.00;;;21.50;83.60;;;;;;4947696;28;20043;-76
2023/09/18 08:19:07;;;;;;;1.92;1.30;;;21.50;83.90;;;;;;4949009;28;20100;-77
2023/09/18 08:21:33;;;;;;;1.10;1.10;;;21.50;84.00;;;;;;4948167;28;20070;-79
2023/09/18 08:23:58;;;;;;;1.45;1.35;;;21.50;83.80;;;;;;4948373;28;20051;-78
2023/09/18 08:26:25;;;;;;;1.48;1.33;;;21.50;84.00;;;;;;4949437;28;20039;-78
2023/09/18 08:28:51;;;;;;;1.63;1.40;;;21.50;83.20;;;;;;4948068;28;20054;-79
2023/09/18 08:31:16;;;;;;;1.50;1.30;;;21.50;83.50;;;;;;4946016;28;20425;-78
2023/09/18 08:33:43;;;;;;;1.48;1.13;;;21.50;83.50;;;;;;4947660;28;20047;-77
2023/09/18 08:36:09;;;;;;;2.03;1.55;;;21.50;82.80;;;;;;4948823;28;20564;-77
2023/09/18 08:38:34;;;;;;;2.22;1.27;;;21.60;81.80;;;;;;4947173;28;20039;-78
2023/09/18 08:41:00;;;;;;;1.13;0.90;;;21.50;81.80;;;;;;4949462;28;20050;-78
2023/09/18 08:43:25;;;;;;;1.27;0.90;;;21.50;82.10;;;;;;4947865;28;20046;-78
2023/09/18 08:45:52;;;;;;;1.15;1.00;;;21.60;82.00;;;;;;4947451;28;20525;-77
2023/09/18 08:48:19;;;;;;;2.25;1.40;;;21.50;82.10;;;;;;4951841;28;20137;-77
2023/09/18 08:50:45;;;;;;;1.20;1.00;;;21.50;82.10;;;;;;4964345;28;20520;-76
2023/09/18 08:53:11;;;;;;;1.88;1.00;;;21.60;82.80;;;;;;4963482;28;20041;-76
2023/09/18 08:55:36;;;;;;;1.33;1.23;;;21.70;81.60;;;;;;4964865;28;20042;-77
2023/09/18 08:58:02;;;;;;;0.93;0.90;;;21.60;81.00;;;;;;4964046;28;20043;-78
2023/09/18 09:00:28;;;;;;;2.45;0.80;;;21.70;80.50;;;;;;4957914;28;20097;-78
2023/09/18 09:02:54;;;;;;;1.38;1.05;;;21.70;80.60;;;;;;4961298;28;20043;-77
2023/09/18 09:05:23;;;;;;;1.00;1.00;;;21.80;80.40;;;;;;4964471;28;20054;-78
2023/09/18 09:07:49;;;;;;;1.27;1.05;;;21.80;80.50;;;;;;4946733;28;20121;-77
2023/09/18 09:10:15;;;;;;;1.52;0.88;;;21.80;80.00;;;;;;4966571;28;20047;-77
2023/09/18 09:12:58;;;;;;;1.17;1.00;;;21.80;79.90;;;;;;4966595;28;20097;-77
2023/09/18 09:15:28;;;;;;;1.10;1.00;;;21.90;80.10;;;;;;4966115;28;20147;-77
2023/09/18 09:18:05;;;;;;;1.25;1.13;;;21.80;79.90;;;;;;4963472;28;20050;-77
2023/09/18 09:20:30;;;;;;;1.90;1.23;;;21.90;79.60;;;;;;4964856;28;20135;-77
2023/09/18 09:23:03;;;;;;;1.92;1.10;;;21.80;80.00;;;;;;4967503;28;20464;-77
2023/09/18 09:25:33;;;;;;;1.83;1.00;;;21.80;80.00;;;;;;4963656;28;20042;-77
2023/09/18 09:28:00;;;;;;;2.15;1.30;;;21.90;80.40;;;;;;4962981;28;20046;-77
2023/09/18 09:30:27;;;;;;;3.22;1.08;;;21.80;79.90;;;;;;4965193;28;20046;-77
2023/09/18 09:32:54;;;;;;;1.20;0.85;;;21.80;80.50;;;;;;4962513;28;20074;-78
2023/09/18 09:35:21;;;;;;;1.00;1.00;;;21.80;80.00;;;;;;4966406;28;20047;-75
2023/09/18 09:37:50;;;;;;;1.67;0.82;;;21.80;80.30;;;;;;4960239;28;20127;-76
2023/09/18 09:40:16;;;;;;;0.90;0.85;;;21.80;80.40;;;;;;4966602;28;20118;-77
2023/09/18 09:42:41;;;;;;;1.77;1.00;;;21.80;79.80;;;;;;4965210;28;20198;-77
2023/09/18 09:45:16;;;;;;;0.93;0.90;;;21.90;80.10;;;;;;4965894;28;20073;-77
2023/09/18 09:47:41;;;;;;;1.08;0.70;;;21.80;79.90;;;;;;4964503;28;20050;-77
2023/09/18 09:50:13;;;;;;;1.02;0.77;;;21.80;80.10;;;;;;4966165;28;20098;-77
2023/09/18 09:52:47;;;;;;;1.05;1.00;;;21.80;80.20;;;;;;4964273;28;20054;-77
2023/09/18 09:55:29;;;;;;;1.48;1.05;;;21.80;80.20;;;;;;4962553;28;20041;-76
2023/09/18 09:58:01;;;;;;;3.22;0.90;;;21.80;79.70;;;;;;4960130;28;20058;-75
2023/09/18 10:00:43;;;;;;;0.85;0.80;;;21.90;79.80;;;;;;4959237;28;20049;-76
2023/09/18 10:03:14;;;;;;;1.25;1.13;;;21.80;79.90;;;;;;4946256;28;20485;-76
2023/09/18 10:05:42;;;;;;;1.00;0.90;;;21.80;80.10;;;;;;4963296;28;20048;-76
2023/09/18 10:08:13;;;;;;;1.08;0.80;;;21.80;79.40;;;;;;4967014;28;20050;-76
2023/09/18 10:10:41;;;;;;;1.67;1.20;;;21.80;79.70;;;;;;4968973;28;20043;-77
2023/09/18 10:13:27;;;;;;;2.35;0.80;;;21.90;79.60;;;;;;4965941;28;20055;-78
2023/09/18 10:15:53;;;;;;;1.02;0.93;;;21.80;80.10;;;;;;4966871;28;20520;-80
2023/09/18 10:18:22;;;;;;;1.40;1.05;;;21.80;80.50;;;;;;4969743;28;20039;-78
2023/09/18 10:20:48;;;;;;;1.10;1.00;;;21.80;80.30;;;;;;4967196;28;20410;-78
2023/09/18 10:23:39;;;;;;;1.88;0.98;;;21.90;80.10;;;;;;4969499;28;20066;-78
2023/09/18 10:26:05;;;;;;;1.27;0.80;;;21.90;79.90;;;;;;4968086;28;20053;-78
2023/09/18 10:28:30;;;;;;;1.20;0.98;;;21.90;80.00;;;;;;4969316;28;20042;-78
2023/09/18 10:30:57;;;;;;;0.80;0.80;;;21.90;79.60;;;;;;4965686;28;20035;-78
2023/09/18 10:33:23;;;;;;;1.33;1.10;;;22.00;79.70;;;;;;4968534;28;20051;-78
2023/09/18 10:35:48;;;;;;;1.10;1.00;;;22.00;79.60;;;;;;4963133;28;20492;-78
2023/09/18 10:38:14;;;;;;;0.75;0.60;;;22.00;79.70;;;;;;4985205;28;20670;-78
2023/09/18 10:40:40;;;;;;;2.38;1.13;;;22.00;79.80;;;;;;4968047;28;20042;-78
2023/09/18 10:43:09;;;;;;;0.80;0.80;;;22.00;79.80;;;;;;4967629;28;20089;-78
2023/09/18 10:45:34;;;;;;;0.70;0.70;;;22.00;79.80;;;;;;4967663;28;20524;-78
2023/09/18 10:48:00;;;;;;;1.20;1.10;;;22.00;79.80;;;;;;4967049;28;20121;-78
2023/09/18 10:50:26;;;;;;;0.80;0.80;;;22.00;79.80;;;;;;4969336;28;20047;-78
2023/09/18 10:52:52;;;;;;;1.10;1.00;;;22.10;80.00;;;;;;4966613;28;20050;-78
2023/09/18 10:55:17;;;;;;;0.80;0.80;;;22.10;80.00;;;;;;4966800;28;20117;-78
2023/09/18 10:57:59;;;;;;;1.23;0.80;;;22.10;80.00;;;;;;4967115;28;20543;-78
2023/09/18 11:00:25;;;;;;;0.77;0.77;;;22.10;80.10;;;;;;4967340;28;20043;-78
2023/09/18 11:02:54;;;;;;;1.60;0.68;;;22.10;80.10;;;;;;4966009;28;20098;-78
2023/09/18 11:05:29;;;;;;;0.70;0.70;;;22.10;80.10;;;;;;4968034;28;20042;-78
2023/09/18 11:08:25;;;;;;;1.02;0.95;;;22.10;80.20;;;;;;4968378;28;20057;-78
2023/09/18 11:11:11;;;;;;;0.60;0.60;;;22.10;80.20;;;;;;4964811;28;20047;-78
2023/09/18 11:13:43;;;;;;;0.80;0.80;;;22.10;80.00;;;;;;4959609;28;20130;-79
2023/09/18 11:16:21;;;;;;;0.82;0.70;;;22.20;80.20;;;;;;4941480;28;20081;-78
2023/09/18 11:18:50;;;;;;;0.90;0.90;;;22.20;79.90;;;;;;4963361;28;20105;-78
2023/09/18 11:21:17;;;;;;;1.05;0.90;;;22.20;80.00;;;;;;4964522;28;20046;-78
2023/09/18 11:23:43;;;;;;;0.77;0.63;;;22.20;80.10;;;;;;4964830;28;20082;-78
2023/09/18 11:26:09;;;;;;;0.68;0.68;;;22.20;79.90;;;;;;4964770;28;20085;-78
2023/09/18 11:28:37;;;;;;;1.42;0.90;;;22.30;80.00;;;;;;4963608;28;20074;-78
2023/09/18 11:31:03;;;;;;;1.20;1.08;;;22.20;80.00;;;;;;4961420;28;20038;-78
2023/09/18 11:33:35;;;;;;;0.80;0.80;;;22.20;80.80;;;;;;4944956;28;20415;-80
2023/09/18 11:36:05;;;;;;;0.82;0.82;;;22.20;80.10;;;;;;4961384;28;20398;-80
2023/09/18 11:38:33;;;;;;;2.10;0.80;;;22.20;80.00;;;;;;4965521;28;20461;-81
2023/09/18 11:41:01;;;;;;;6.70;1.45;;;22.20;79.70;;;;;;4946184;28;20066;-81
2023/09/18 11:43:30;;;;;;;1.55;0.82;;;22.30;79.80;;;;;;4965550;28;20398;-81
2023/09/18 11:45:57;;;;;;;1.23;0.80;;;22.30;79.60;;;;;;4956150;28;20428;-79
2023/09/18 11:48:27;;;;;;;0.70;0.70;;;22.30;79.40;;;;;;4960870;28;20105;-81
2023/09/18 11:50:54;;;;;;;2.00;1.08;;;22.30;79.40;;;;;;4962903;28;20054;-77
2023/09/18 11:53:20;;;;;;;2.40;0.73;;;22.30;79.30;;;;;;4964605;28;20051;-78
2023/09/18 11:55:46;;;;;;;1.20;1.10;;;22.30;79.50;;;;;;4965868;28;20049;-80
2023/09/18 11:58:11;;;;;;;0.68;0.68;;;22.40;78.00;;;;;;4965798;28;20051;-80
2023/09/18 12:00:45;;;;;;;0.90;0.90;;;22.40;76.90;;;;;;4965274;28;20073;-79
2023/09/18 12:03:24;;;;;;;;;;;22.40;76.10;;;;;;4961092;28;20068;-79
2023/09/18 12:06:00;;;;;;;1.00;0.65;;;22.30;75.30;;;;;;4965333;28;20008;-79
2023/09/18 12:08:26;;;;;;;0.68;0.60;;;22.30;74.90;;;;;;4978672;28;20043;-79
2023/09/18 12:10:53;;;;;;;0.63;0.50;;;22.40;74.30;;;;;;4967044;28;20077;-81
2023/09/18 12:13:18;;;;;;;0.68;0.68;;;22.40;74.10;;;;;;4964240;28;20051;-79
2023/09/18 12:15:44;;;;;;;0.93;0.77;;;22.30;73.70;;;;;;4964826;28;20179;-79
2023/09/18 12:18:14;;;;;;;1.85;0.90;;;22.30;73.20;;;;;;4964287;28;20040;-79
2023/09/18 12:20:49;;;;;;;1.95;0.80;;;22.30;72.80;;;;;;4965911;28;20552;-80
2023/09/18 12:23:15;;;;;;;0.88;0.88;;;22.40;73.00;;;;;;4964414;28;20093;-79
2023/09/18 12:25:41;;;;;;;0.60;0.50;;;22.40;71.90;;;;;;4964958;28;20497;-79
2023/09/18 12:28:07;;;;;;;2.38;0.65;;;22.30;71.70;;;;;;4957229;28;20031;-79
2023/09/18 12:30:33;;;;;;;0.70;0.70;;;22.30;72.20;;;;;;4947817;28;20061;-79
2023/09/18 12:33:03;;;;;;;1.38;0.60;;;22.30;71.80;;;;;;4964108;28;20035;-79
2023/09/18 12:35:29;;;;;;;0.60;0.60;;;22.20;71.90;;;;;;4964376;28;20055;-79
2023/09/18 12:37:57;;;;;;;0.77;0.77;;;22.30;72.20;;;;;;4963639;28;20081;-79
2023/09/18 12:40:24;;;;;;;1.55;0.70;;;22.30;72.50;;;;;;4963561;28;20055;-79
2023/09/18 12:42:50;;;;;;;0.80;0.73;;;22.30;72.70;;;;;;4965386;28;20193;-80
2023/09/18 12:45:17;;;;;;;0.60;0.60;;;22.30;72.60;;;;;;4971079;28;20648;-80
2023/09/18 12:47:43;;;;;;;1.25;0.98;;;22.30;72.90;;;;;;4965248;28;20086;-78